Time;durP1;ratioP1;P1;durP2;ratioP2;P2;SDS_P1;SDS_P2;PMS_P1;PMS_P2;Temp;Humidity;BMP_temperature;BMP_pressure;BME280_temperature;BME280_humidity;BME280_pressure;Samples;Min_cycle;Max_cycle;Signal;HPM_P1;HPM_P2
2023/08/03 00:01:33;;;;;;;1.83;1.23;;;17.30;99.90;;;;;;5015395;28;20510;-50
2023/08/03 00:04:00;;;;;;;3.83;1.50;;;17.30;99.90;;;;;;5016365;28;20478;-52
2023/08/03 00:06:27;;;;;;;1.73;1.30;;;17.30;99.90;;;;;;5015312;28;20656;-50
2023/08/03 00:08:53;;;;;;;2.20;1.37;;;17.30;99.90;;;;;;5018498;28;20463;-49
2023/08/03 00:11:20;;;;;;;3.07;1.50;;;17.30;99.90;;;;;;5016425;28;20567;-50
2023/08/03 00:13:46;;;;;;;3.13;1.73;;;17.30;99.90;;;;;;5005820;28;20554;-49
2023/08/03 00:16:13;;;;;;;3.83;1.27;;;17.30;99.90;;;;;;5015466;28;20558;-50
2023/08/03 00:18:41;;;;;;;2.90;1.07;;;17.30;99.90;;;;;;5014564;28;20459;-49
2023/08/03 00:21:07;;;;;;;2.07;1.60;;;17.30;99.90;;;;;;5010564;28;21077;-51
2023/08/03 00:23:34;;;;;;;1.80;1.70;;;17.30;99.90;;;;;;5006788;28;20490;-52
2023/08/03 00:26:00;;;;;;;3.33;2.00;;;17.30;99.90;;;;;;5008380;28;20581;-53
2023/08/03 00:28:27;;;;;;;2.63;2.43;;;17.30;99.90;;;;;;5003262;28;20502;-53
2023/08/03 00:30:53;;;;;;;2.97;2.20;;;17.30;99.90;;;;;;5011762;28;22317;-52
2023/08/03 00:33:20;;;;;;;2.37;2.17;;;17.30;99.90;;;;;;5010090;28;20554;-53
2023/08/03 00:35:48;;;;;;;3.60;2.00;;;17.40;99.90;;;;;;5014856;28;20495;-53
2023/08/03 00:38:14;;;;;;;2.03;1.63;;;17.30;99.90;;;;;;5009749;28;20554;-53
2023/08/03 00:40:41;;;;;;;7.10;2.17;;;17.30;99.90;;;;;;5010657;28;20456;-52
2023/08/03 00:43:07;;;;;;;7.30;2.53;;;17.30;99.90;;;;;;5013008;28;20567;-53
2023/08/03 00:45:34;;;;;;;6.00;2.80;;;17.30;99.90;;;;;;5008269;28;20488;-50
2023/08/03 00:48:00;;;;;;;2.23;1.70;;;17.30;99.90;;;;;;5015770;28;20555;-50
2023/08/03 00:50:27;;;;;;;1.40;1.30;;;17.30;99.90;;;;;;5007018;28;20505;-50
2023/08/03 00:52:55;;;;;;;3.73;1.30;;;17.20;99.90;;;;;;5002565;28;20518;-54
2023/08/03 00:55:21;;;;;;;2.30;1.40;;;17.20;99.90;;;;;;5012325;28;20518;-50
2023/08/03 00:57:48;;;;;;;1.73;1.30;;;17.20;99.90;;;;;;5003855;28;20554;-50
2023/08/03 01:00:15;;;;;;;3.63;1.70;;;17.30;99.90;;;;;;5013390;28;20581;-50
2023/08/03 01:02:41;;;;;;;2.53;1.33;;;17.30;99.90;;;;;;5016030;28;20510;-50
2023/08/03 01:05:08;;;;;;;2.70;1.50;;;17.30;99.90;;;;;;5012214;28;20510;-50
2023/08/03 01:07:35;;;;;;;4.87;1.43;;;17.30;99.90;;;;;;5017665;28;20899;-50
2023/08/03 01:10:03;;;;;;;1.47;1.07;;;17.30;99.90;;;;;;4995122;28;20848;-51
2023/08/03 01:12:30;;;;;;;1.60;1.03;;;17.30;99.90;;;;;;5017466;28;20562;-53
2023/08/03 01:14:57;;;;;;;2.60;1.40;;;17.20;99.90;;;;;;5015096;28;20915;-52
2023/08/03 01:17:24;;;;;;;1.93;1.23;;;17.20;99.90;;;;;;5004181;28;20953;-52
2023/08/03 01:19:51;;;;;;;4.97;1.23;;;17.20;99.90;;;;;;5008301;28;20467;-52
2023/08/03 01:22:19;;;;;;;1.53;1.23;;;17.30;99.90;;;;;;5023271;28;20556;-50
2023/08/03 01:24:47;;;;;;;4.73;1.13;;;17.30;99.90;;;;;;5010973;28;20549;-49
2023/08/03 01:27:13;;;;;;;2.93;1.40;;;17.20;99.90;;;;;;5014261;28;21283;-50
2023/08/03 01:29:40;;;;;;;1.63;1.37;;;17.30;99.90;;;;;;5012689;28;20981;-51
2023/08/03 01:32:07;;;;;;;2.90;1.40;;;17.30;99.90;;;;;;5029554;28;20482;-52
2023/08/03 01:34:33;;;;;;;1.40;1.30;;;17.30;99.90;;;;;;4999643;28;20498;-54
2023/08/03 01:37:00;;;;;;;2.20;1.20;;;17.20;99.90;;;;;;5007451;28;20488;-53
2023/08/03 01:39:26;;;;;;;1.63;1.27;;;17.30;99.90;;;;;;5009544;28;20551;-53
2023/08/03 01:41:54;;;;;;;2.00;1.20;;;17.20;99.90;;;;;;5015976;28;20527;-54
2023/08/03 01:44:27;;;;;;;2.50;1.30;;;17.20;99.90;;;;;;5014930;28;21012;-53
2023/08/03 01:46:54;;;;;;;3.00;1.10;;;17.20;99.90;;;;;;5012353;28;20491;-53
2023/08/03 01:49:22;;;;;;;1.83;0.90;;;17.20;99.90;;;;;;5011342;28;20464;-52
2023/08/03 01:51:49;;;;;;;1.37;1.27;;;17.20;99.90;;;;;;5012340;28;20498;-49
2023/08/03 01:54:16;;;;;;;4.40;1.70;;;17.20;99.90;;;;;;5008128;28;20455;-51
2023/08/03 01:56:42;;;;;;;7.40;1.40;;;17.30;99.90;;;;;;5014759;28;20503;-50
2023/08/03 01:59:11;;;;;;;3.40;1.47;;;17.30;99.90;;;;;;5018443;28;20574;-50
2023/08/03 02:01:38;;;;;;;2.40;1.50;;;17.20;99.90;;;;;;5015467;28;20858;-51
2023/08/03 02:04:05;;;;;;;3.43;1.60;;;17.20;99.90;;;;;;5006445;28;20515;-52
2023/08/03 02:06:31;;;;;;;2.20;1.13;;;17.20;99.90;;;;;;5020046;28;20529;-52
2023/08/03 02:08:58;;;;;;;2.13;1.33;;;17.10;99.90;;;;;;5007887;28;20496;-51
2023/08/03 02:11:25;;;;;;;0.87;0.87;;;17.10;99.90;;;;;;5021298;28;20522;-51
2023/08/03 02:13:52;;;;;;;9.37;1.77;;;17.10;99.90;;;;;;5010892;28;20558;-51
2023/08/03 02:16:20;;;;;;;2.13;0.90;;;17.10;99.90;;;;;;5012801;28;20538;-50
2023/08/03 02:18:46;;;;;;;1.73;1.10;;;17.10;99.90;;;;;;5012877;28;20509;-50
2023/08/03 02:21:13;;;;;;;5.20;1.30;;;17.10;99.90;;;;;;5017279;28;21069;-50
2023/08/03 02:23:39;;;;;;;3.07;1.00;;;17.10;99.90;;;;;;5013310;28;20490;-51
2023/08/03 02:26:06;;;;;;;4.80;1.33;;;17.00;99.90;;;;;;5020228;28;20610;-50
2023/08/03 02:28:33;;;;;;;1.87;1.20;;;17.00;99.90;;;;;;5012661;28;20467;-50
2023/08/03 02:31:00;;;;;;;5.17;1.43;;;17.10;99.90;;;;;;5009171;28;20479;-49
2023/08/03 02:33:27;;;;;;;1.47;1.37;;;17.00;99.90;;;;;;5012831;28;20460;-51
2023/08/03 02:35:54;;;;;;;5.30;1.40;;;17.10;99.90;;;;;;5011572;28;20472;-50
2023/08/03 02:38:20;;;;;;;4.87;1.50;;;17.10;99.90;;;;;;5018653;28;20486;-51
2023/08/03 02:40:47;;;;;;;3.50;1.53;;;17.10;99.90;;;;;;5015304;28;20474;-50
2023/08/03 02:43:13;;;;;;;3.47;1.30;;;17.10;99.90;;;;;;5013380;28;20507;-50
2023/08/03 02:45:40;;;;;;;1.63;1.30;;;17.10;99.90;;;;;;5011798;28;20537;-49
2023/08/03 02:48:06;;;;;;;1.63;1.53;;;17.10;99.90;;;;;;5003594;28;20575;-50
2023/08/03 02:50:34;;;;;;;3.23;1.40;;;17.10;99.90;;;;;;5010544;28;20550;-53
2023/08/03 02:53:04;;;;;;;1.30;1.17;;;17.10;99.90;;;;;;5006436;28;20558;-51
2023/08/03 02:55:30;;;;;;;3.60;1.60;;;17.10;99.90;;;;;;5006790;28;20459;-51
2023/08/03 02:57:57;;;;;;;2.30;1.37;;;17.10;99.90;;;;;;5010502;28;21026;-50
2023/08/03 03:00:23;;;;;;;2.10;1.60;;;17.10;99.90;;;;;;5018115;28;20468;-49
2023/08/03 03:02:50;;;;;;;1.57;1.30;;;17.10;99.90;;;;;;5011545;28;21016;-49
2023/08/03 03:05:16;;;;;;;3.83;1.53;;;17.10;99.90;;;;;;5008285;28;20554;-51
2023/08/03 03:07:44;;;;;;;1.80;1.43;;;17.10;99.90;;;;;;5014637;28;20566;-50
2023/08/03 03:10:13;;;;;;;4.87;1.53;;;17.00;99.90;;;;;;5005265;28;20547;-50
2023/08/03 03:12:39;;;;;;;1.73;1.63;;;17.10;99.90;;;;;;5016560;28;20485;-50
2023/08/03 03:15:07;;;;;;;6.40;1.90;;;17.00;99.90;;;;;;5006495;28;20542;-50
2023/08/03 03:17:33;;;;;;;1.50;1.20;;;17.10;99.90;;;;;;5009592;28;20576;-50
2023/08/03 03:20:00;;;;;;;4.23;1.77;;;17.10;99.90;;;;;;5008362;28;20551;-50
2023/08/03 03:22:26;;;;;;;3.33;2.17;;;17.10;99.90;;;;;;5012995;28;21067;-50
2023/08/03 03:24:54;;;;;;;3.90;1.67;;;17.10;99.90;;;;;;5007661;28;20972;-50
2023/08/03 03:27:21;;;;;;;2.87;1.57;;;17.10;99.90;;;;;;5002863;28;20571;-49
2023/08/03 03:29:47;;;;;;;3.13;1.83;;;17.10;99.90;;;;;;5008119;28;20487;-49
2023/08/03 03:32:14;;;;;;;2.07;1.47;;;17.10;99.90;;;;;;5005171;28;20574;-50
2023/08/03 03:34:40;;;;;;;3.23;1.40;;;17.10;99.90;;;;;;5010290;28;21025;-49
2023/08/03 03:37:07;;;;;;;5.87;1.30;;;17.00;99.90;;;;;;5010858;28;20542;-50
2023/08/03 03:39:33;;;;;;;2.00;1.23;;;17.00;99.90;;;;;;5008746;28;20486;-51
2023/08/03 03:42:01;;;;;;;5.20;1.40;;;17.00;99.90;;;;;;5008863;28;20511;-50
2023/08/03 03:44:28;;;;;;;2.90;1.40;;;17.00;99.90;;;;;;5010989;28;20498;-50
2023/08/03 03:46:54;;;;;;;5.20;2.17;;;17.00;99.90;;;;;;5003710;28;20570;-49
2023/08/03 03:49:21;;;;;;;3.77;1.70;;;17.00;99.90;;;;;;5000013;28;20465;-49
2023/08/03 03:51:47;;;;;;;2.20;1.30;;;17.10;99.90;;;;;;5011964;28;21043;-49
2023/08/03 03:54:14;;;;;;;3.50;1.50;;;17.00;99.90;;;;;;5012966;28;20586;-49
2023/08/03 03:56:40;;;;;;;4.07;2.07;;;17.10;99.90;;;;;;5013003;28;20542;-50
2023/08/03 03:59:08;;;;;;;10.40;1.70;;;17.10;99.90;;;;;;5006670;28;20551;-51
2023/08/03 04:01:34;;;;;;;3.43;1.60;;;17.10;99.90;;;;;;5007245;28;20511;-51
2023/08/03 04:04:01;;;;;;;4.77;1.80;;;17.10;99.90;;;;;;5007228;28;20547;-50
2023/08/03 04:06:27;;;;;;;3.83;1.70;;;17.20;99.90;;;;;;5022840;28;20463;-50
2023/08/03 04:08:54;;;;;;;8.70;2.00;;;17.20;99.90;;;;;;5002544;28;20554;-50
2023/08/03 04:11:20;;;;;;;7.78;1.58;;;17.30;99.90;;;;;;5010928;28;20874;-51
2023/08/03 04:13:47;;;;;;;4.03;1.67;;;17.30;99.90;;;;;;5012659;28;20229;-51
2023/08/03 04:16:15;;;;;;;11.03;2.07;;;17.30;99.90;;;;;;5003359;28;20465;-50
2023/08/03 04:18:42;;;;;;;2.90;1.97;;;17.50;99.90;;;;;;5004618;28;20456;-50
2023/08/03 04:21:09;;;;;;;8.67;2.00;;;17.40;99.90;;;;;;5011543;28;20566;-52
2023/08/03 04:23:36;;;;;;;5.83;2.27;;;17.50;99.90;;;;;;5022060;28;20971;-51
2023/08/03 04:26:02;;;;;;;5.53;1.70;;;17.50;99.90;;;;;;5014836;28;20538;-51
2023/08/03 04:28:29;;;;;;;3.90;1.70;;;17.60;99.90;;;;;;5012286;28;21021;-50
2023/08/03 04:30:55;;;;;;;5.27;1.90;;;17.60;99.90;;;;;;5011671;28;20577;-51
2023/08/03 04:33:23;;;;;;;7.23;2.07;;;17.60;99.90;;;;;;5005015;28;20522;-51
2023/08/03 04:35:50;;;;;;;20.03;3.63;;;17.60;99.90;;;;;;5006136;28;20556;-50
2023/08/03 04:38:17;;;;;;;11.37;2.87;;;17.60;99.90;;;;;;5015634;28;20521;-51
2023/08/03 04:40:43;;;;;;;4.83;1.97;;;17.70;99.90;;;;;;5020549;28;20922;-51
2023/08/03 04:43:10;;;;;;;7.90;2.00;;;17.70;99.90;;;;;;5010013;28;20491;-51
2023/08/03 04:45:36;;;;;;;6.33;1.50;;;17.70;99.90;;;;;;5005287;28;20503;-51
2023/08/03 04:48:03;;;;;;;7.23;2.17;;;17.70;99.90;;;;;;5008059;28;20480;-50
2023/08/03 04:50:31;;;;;;;7.33;2.20;;;17.80;99.90;;;;;;5008711;28;20494;-50
2023/08/03 04:52:57;;;;;;;4.20;1.70;;;17.80;99.90;;;;;;5015071;28;20499;-50
2023/08/03 04:55:24;;;;;;;9.03;2.30;;;17.70;99.90;;;;;;5005276;28;20486;-50
2023/08/03 04:57:50;;;;;;;9.03;1.80;;;17.80;99.90;;;;;;5005672;28;20546;-51
2023/08/03 05:00:17;;;;;;;6.60;2.00;;;17.70;99.90;;;;;;5010312;28;20487;-51
2023/08/03 05:02:44;;;;;;;11.63;2.20;;;17.70;99.90;;;;;;5012539;28;21089;-50
2023/08/03 05:05:10;;;;;;;9.80;2.17;;;17.80;99.90;;;;;;5005523;28;20554;-51
2023/08/03 05:07:38;;;;;;;5.17;2.10;;;17.80;99.90;;;;;;5000209;28;22321;-50
2023/08/03 05:10:05;;;;;;;6.80;2.40;;;17.90;24.20;;;;;;5005896;28;20834;-50
2023/08/03 05:12:31;;;;;;;5.87;1.83;;;17.90;75.70;;;;;;5011382;28;20506;-50
2023/08/03 05:14:58;;;;;;;3.13;1.97;;;17.90;77.00;;;;;;5007996;28;20488;-49
2023/08/03 05:17:25;;;;;;;6.03;2.33;;;18.00;38.10;;;;;;5008723;28;20451;-48
2023/08/03 05:19:52;;;;;;;8.30;2.60;;;18.00;34.40;;;;;;5008525;28;20472;-51
2023/08/03 05:22:18;;;;;;;14.77;2.07;;;18.00;43.90;;;;;;5004972;28;20533;-50
2023/08/03 05:24:46;;;;;;;15.10;2.60;;;18.10;43.80;;;;;;5012747;28;20497;-51
2023/08/03 05:27:12;;;;;;;6.33;1.90;;;18.20;48.40;;;;;;5009465;28;20566;-51
2023/08/03 05:29:42;;;;;;;5.83;2.20;;;18.30;46.80;;;;;;5008628;28;20464;-51
2023/08/03 05:32:09;;;;;;;5.73;2.10;;;18.30;37.90;;;;;;5003759;28;20479;-50
2023/08/03 05:34:35;;;;;;;6.67;2.07;;;18.30;50.10;;;;;;5023883;28;20542;-50
2023/08/03 05:37:02;;;;;;;6.93;2.23;;;18.30;46.30;;;;;;5008048;28;21003;-50
2023/08/03 05:39:28;;;;;;;10.10;2.10;;;18.30;43.90;;;;;;5007838;28;21066;-51
2023/08/03 05:41:57;;;;;;;11.50;2.53;;;18.40;51.20;;;;;;5007169;28;20614;-49
2023/08/03 05:44:23;;;;;;;6.30;2.50;;;18.40;59.60;;;;;;5014404;28;20962;-50
2023/08/03 05:46:50;;;;;;;8.13;1.93;;;18.50;59.60;;;;;;5011882;28;21000;-51
2023/08/03 05:49:16;;;;;;;10.50;2.27;;;18.60;70.40;;;;;;5021588;28;20485;-51
2023/08/03 05:51:43;;;;;;;15.23;2.33;;;18.80;81.60;;;;;;5021484;28;20510;-51
2023/08/03 05:54:14;;;;;;;7.57;2.67;;;18.90;89.20;;;;;;5011546;28;20469;-51
2023/08/03 05:56:41;;;;;;;15.30;2.57;;;19.00;86.80;;;;;;5005626;28;20980;-52
2023/08/03 05:59:19;;;;;;;9.43;1.93;;;19.00;91.00;;;;;;5002902;28;21021;-50
2023/08/03 06:01:47;;;;;;;14.73;2.27;;;19.00;99.90;;;;;;5004414;28;20506;-52
2023/08/03 06:04:15;;;;;;;8.57;1.60;;;19.00;98.00;;;;;;5011158;28;20542;-51
2023/08/03 06:06:41;;;;;;;8.40;1.70;;;19.00;99.90;;;;;;5012564;28;20514;-50
2023/08/03 06:09:11;;;;;;;7.77;1.63;;;19.00;99.90;;;;;;5006995;28;20578;-51
2023/08/03 06:11:38;;;;;;;14.30;2.57;;;18.90;99.90;;;;;;5010740;28;20562;-50
2023/08/03 06:14:05;;;;;;;9.70;2.17;;;19.00;99.90;;;;;;5009222;28;20559;-51
2023/08/03 06:16:33;;;;;;;7.50;2.00;;;18.90;99.90;;;;;;5015226;28;20512;-51
2023/08/03 06:19:00;;;;;;;12.03;1.97;;;19.00;99.90;;;;;;5009160;28;21374;-50
2023/08/03 06:21:28;;;;;;;6.60;2.27;;;19.00;99.90;;;;;;5005850;28;20483;-52
2023/08/03 06:23:57;;;;;;;5.60;1.77;;;19.00;99.90;;;;;;5000530;28;20550;-51
2023/08/03 06:26:25;;;;;;;8.10;2.33;;;19.10;99.90;;;;;;5014175;28;20459;-50
2023/08/03 06:28:54;;;;;;;10.80;1.73;;;19.10;99.90;;;;;;5017528;28;20934;-51
2023/08/03 06:31:24;;;;;;;8.50;1.63;;;19.10;99.90;;;;;;5013968;28;20487;-51
2023/08/03 06:33:52;;;;;;;10.20;2.07;;;19.20;99.90;;;;;;5002839;28;20472;-52
2023/08/03 06:36:21;;;;;;;4.77;1.67;;;19.20;99.90;;;;;;5018180;28;20459;-51
2023/08/03 06:38:47;;;;;;;8.57;2.13;;;19.20;99.90;;;;;;5011554;28;20464;-52
2023/08/03 06:41:14;;;;;;;4.17;1.57;;;19.30;99.90;;;;;;5013439;28;20517;-51
2023/08/03 06:43:41;;;;;;;4.00;1.53;;;19.30;99.90;;;;;;5009669;28;20545;-51
2023/08/03 06:46:08;;;;;;;22.27;2.37;;;19.40;99.90;;;;;;5022575;28;20521;-51
2023/08/03 06:48:35;;;;;;;11.37;1.70;;;19.40;99.90;;;;;;5012441;28;20901;-51
2023/08/03 06:51:03;;;;;;;6.60;1.73;;;19.40;99.90;;;;;;5021539;28;20466;-51
2023/08/03 06:53:30;;;;;;;5.83;1.83;;;19.40;99.90;;;;;;5009512;28;20468;-53
2023/08/03 06:55:57;;;;;;;11.60;1.77;;;19.40;99.90;;;;;;5010469;28;20495;-52
2023/08/03 06:58:23;;;;;;;7.47;1.57;;;19.50;99.90;;;;;;5018785;28;20546;-51
2023/08/03 07:00:50;;;;;;;4.10;1.60;;;19.40;99.90;;;;;;4994134;28;21113;-52
2023/08/03 07:03:17;;;;;;;8.13;1.47;;;19.40;99.90;;;;;;5009067;28;20547;-52
2023/08/03 07:05:44;;;;;;;4.77;1.23;;;19.30;99.90;;;;;;5007905;28;20460;-51
2023/08/03 07:08:12;;;;;;;4.87;1.30;;;19.30;99.90;;;;;;5011244;28;20475;-52
2023/08/03 07:10:39;;;;;;;11.80;1.20;;;19.30;99.90;;;;;;5011599;28;20554;-50
2023/08/03 07:13:06;;;;;;;12.53;2.03;;;19.30;99.90;;;;;;5007473;28;21020;-50
2023/08/03 07:15:34;;;;;;;4.70;1.30;;;19.30;99.90;;;;;;5011021;28;20464;-51
2023/08/03 07:18:01;;;;;;;4.47;1.67;;;19.30;99.90;;;;;;5009335;28;20546;-52
2023/08/03 07:20:28;;;;;;;12.80;2.73;;;19.30;99.90;;;;;;5015221;28;20467;-52
2023/08/03 07:22:55;;;;;;;12.23;1.50;;;19.30;99.90;;;;;;5010559;28;20900;-52
2023/08/03 07:25:23;;;;;;;3.83;1.63;;;19.30;99.90;;;;;;5006478;28;20511;-52
2023/08/03 07:27:50;;;;;;;15.23;1.37;;;19.30;99.90;;;;;;5006740;28;20562;-51
2023/08/03 07:30:17;;;;;;;4.73;1.70;;;19.30;99.90;;;;;;5012416;28;20557;-51
2023/08/03 07:32:43;;;;;;;8.27;1.60;;;19.30;99.90;;;;;;5014189;28;20515;-53
2023/08/03 07:35:10;;;;;;;4.30;1.70;;;19.40;99.90;;;;;;5018030;28;20635;-52
2023/08/03 07:37:36;;;;;;;7.70;2.00;;;19.40;99.90;;;;;;5005175;28;20550;-52
2023/08/03 07:40:03;;;;;;;8.43;2.57;;;19.40;99.90;;;;;;5007989;28;20539;-51
2023/08/03 07:42:31;;;;;;;9.10;1.70;;;19.40;99.90;;;;;;5013419;28;20506;-51
2023/08/03 07:44:58;;;;;;;8.07;1.67;;;19.50;99.90;;;;;;5008797;28;20456;-52
2023/08/03 07:47:25;;;;;;;4.77;1.47;;;19.40;99.90;;;;;;5012856;28;20488;-52
2023/08/03 07:49:54;;;;;;;1.93;1.07;;;19.50;99.90;;;;;;5015192;28;20499;-52
2023/08/03 07:52:20;;;;;;;5.03;1.40;;;19.50;99.90;;;;;;5010717;28;20515;-50
2023/08/03 07:54:47;;;;;;;5.63;1.50;;;19.60;99.90;;;;;;5003708;28;20464;-50
2023/08/03 07:57:15;;;;;;;5.13;1.20;;;19.60;99.90;;;;;;5022010;28;20496;-50
2023/08/03 07:59:43;;;;;;;10.40;1.90;;;19.60;99.90;;;;;;5000387;28;20464;-50
2023/08/03 08:02:10;;;;;;;3.03;1.47;;;19.70;99.90;;;;;;5010090;28;20511;-50
2023/08/03 08:04:36;;;;;;;5.80;1.40;;;19.80;99.90;;;;;;5012593;28;20534;-50
2023/08/03 08:07:03;;;;;;;7.63;2.03;;;19.90;99.90;;;;;;5018090;28;20537;-50
2023/08/03 08:09:30;;;;;;;5.40;1.40;;;19.90;99.90;;;;;;5016666;28;20503;-51
2023/08/03 08:11:56;;;;;;;5.17;1.60;;;19.90;99.90;;;;;;5013123;28;20571;-51
2023/08/03 08:14:23;;;;;;;6.20;1.37;;;19.90;99.90;;;;;;5007934;28;20975;-50
2023/08/03 08:16:50;;;;;;;4.17;1.30;;;19.80;99.90;;;;;;5012464;28;20498;-50
2023/08/03 08:19:17;;;;;;;3.10;0.93;;;19.70;99.90;;;;;;5003311;28;20531;-50
2023/08/03 08:21:44;;;;;;;2.60;0.87;;;19.70;99.90;;;;;;5010606;28;20527;-50
2023/08/03 08:24:10;;;;;;;3.10;1.00;;;19.60;99.90;;;;;;5015727;28;20533;-50
2023/08/03 08:26:37;;;;;;;3.93;1.10;;;19.60;99.90;;;;;;5015605;28;20451;-50
2023/08/03 08:29:03;;;;;;;4.63;1.53;;;19.60;99.90;;;;;;5022625;28;20904;-50
2023/08/03 08:31:30;;;;;;;2.87;1.20;;;19.70;99.90;;;;;;5020045;28;20517;-51
2023/08/03 08:33:58;;;;;;;5.63;1.10;;;19.80;99.90;;;;;;5018287;28;20455;-51
2023/08/03 08:36:24;;;;;;;8.23;1.40;;;19.90;99.90;;;;;;5014430;28;21136;-51
2023/08/03 08:38:51;;;;;;;2.60;1.00;;;20.00;99.90;;;;;;5011784;28;20952;-50
2023/08/03 08:41:17;;;;;;;1.63;1.20;;;20.10;99.90;;;;;;5013213;28;20511;-50
2023/08/03 08:43:44;;;;;;;3.30;1.07;;;20.20;99.90;;;;;;5013259;28;20523;-50
2023/08/03 08:46:10;;;;;;;6.40;0.87;;;20.40;99.90;;;;;;5011778;28;20529;-50
2023/08/03 08:48:37;;;;;;;12.23;1.10;;;20.40;99.90;;;;;;5017440;28;21060;-51
2023/08/03 08:51:05;;;;;;;7.70;0.93;;;20.40;99.90;;;;;;5014408;28;20590;-51
2023/08/03 08:53:32;;;;;;;2.20;0.90;;;20.40;99.90;;;;;;5012319;28;20469;-51
2023/08/03 08:56:00;;;;;;;9.40;1.70;;;20.60;99.90;;;;;;5020616;28;20498;-51
2023/08/03 08:58:27;;;;;;;4.43;1.10;;;20.80;99.90;;;;;;5011853;28;21039;-50
2023/08/03 09:01:02;;;;;;;1.37;0.93;;;20.90;99.90;;;;;;5013227;28;20566;-51
2023/08/03 09:03:45;;;;;;;3.10;1.00;;;21.20;99.90;;;;;;5010693;28;20525;-52
2023/08/03 09:06:13;;;;;;;4.80;0.90;;;21.50;99.90;;;;;;5011848;28;20869;-53
2023/08/03 09:08:49;;;;;;;4.47;1.10;;;21.40;32.20;;;;;;5019012;28;20590;-52
2023/08/03 09:11:16;;;;;;;22.80;2.60;;;21.40;99.90;;;;;;5002526;28;20474;-55
2023/08/03 09:13:42;;;;;;;10.83;0.83;;;21.20;33.00;;;;;;5003747;28;20491;-54
2023/08/03 09:16:23;;;;;;;5.60;1.10;;;21.30;30.70;;;;;;5008706;28;20510;-52
2023/08/03 09:18:49;;;;;;;1.93;0.70;;;21.20;30.50;;;;;;5002389;28;20467;-53
2023/08/03 09:21:19;;;;;;;5.50;1.00;;;21.20;26.10;;;;;;5008637;28;20559;-53
2023/08/03 09:23:46;;;;;;;2.17;0.70;;;21.30;23.60;;;;;;5001572;28;20486;-52
2023/08/03 09:26:12;;;;;;;2.27;0.80;;;21.30;30.40;;;;;;5013226;28;20500;-51
2023/08/03 09:28:41;;;;;;;3.60;0.63;;;21.30;23.70;;;;;;5016627;28;20486;-52
2023/08/03 09:31:08;;;;;;;6.00;1.07;;;21.70;29.50;;;;;;5018479;28;20575;-50
2023/08/03 09:33:35;;;;;;;1.80;0.50;;;21.80;37.20;;;;;;5012084;28;20545;-50
2023/08/03 09:36:03;;;;;;;2.70;0.67;;;22.00;38.80;;;;;;5008573;28;20463;-53
2023/08/03 09:38:31;;;;;;;2.00;0.80;;;22.40;41.50;;;;;;5013791;28;20452;-53
2023/08/03 09:40:58;;;;;;;11.37;0.87;;;22.60;43.90;;;;;;5019886;28;20561;-51
2023/08/03 09:43:26;;;;;;;2.00;0.60;;;22.60;53.10;;;;;;5010005;28;20483;-52
2023/08/03 09:45:53;;;;;;;3.80;0.70;;;22.50;58.20;;;;;;5011242;28;20957;-52
2023/08/03 09:48:20;;;;;;;2.20;0.80;;;22.30;66.60;;;;;;5018034;28;20506;-52
2023/08/03 09:50:51;;;;;;;1.20;0.60;;;22.20;61.10;;;;;;5016381;28;21154;-51
2023/08/03 09:53:20;;;;;;;3.40;0.90;;;22.50;79.90;;;;;;5020379;28;20497;-51
2023/08/03 09:55:58;;;;;;;2.80;0.63;;;22.80;76.40;;;;;;5016984;28;20505;-51
2023/08/03 09:58:30;;;;;;;5.00;0.67;;;23.10;81.80;;;;;;5011676;28;20452;-50
2023/08/03 10:01:00;;;;;;;4.00;0.77;;;23.00;89.20;;;;;;5023013;28;20479;-51
2023/08/03 10:03:30;;;;;;;3.70;0.77;;;23.30;90.00;;;;;;5012275;28;20456;-51
2023/08/03 10:06:03;;;;;;;4.73;0.63;;;23.20;97.50;;;;;;5022354;28;20462;-51
2023/08/03 10:08:33;;;;;;;9.93;0.80;;;23.30;99.90;;;;;;5027883;28;20520;-51
2023/08/03 10:11:03;;;;;;;4.40;0.50;;;23.70;99.90;;;;;;5024658;28;21011;-50
2023/08/03 10:13:33;;;;;;;5.07;0.60;;;23.60;99.90;;;;;;5013271;28;20998;-50
2023/08/03 10:16:01;;;;;;;3.53;0.50;;;23.40;99.90;;;;;;5018923;28;20502;-50
2023/08/03 10:18:28;;;;;;;2.50;0.50;;;22.90;94.70;;;;;;5013398;28;20532;-53
2023/08/03 10:20:55;;;;;;;1.17;0.50;;;22.40;99.90;;;;;;5014043;28;20562;-51
2023/08/03 10:23:22;;;;;;;2.93;0.43;;;22.20;89.50;;;;;;5010450;28;20487;-51
2023/08/03 10:25:54;;;;;;;1.87;0.67;;;21.80;85.20;;;;;;5013424;28;20508;-51
2023/08/03 10:28:23;;;;;;;0.80;0.40;;;21.70;74.90;;;;;;5020270;28;20985;-52
2023/08/03 10:31:07;;;;;;;3.27;0.50;;;21.50;72.40;;;;;;5022392;28;20546;-51
2023/08/03 10:34:04;;;;;;;12.30;0.50;;;21.40;65.20;;;;;;5013210;28;20475;-51
2023/08/03 10:36:39;;;;;;;1.03;0.40;;;21.30;56.20;;;;;;5021883;28;20499;-51
2023/08/03 10:39:08;;;;;;;9.67;1.27;;;21.50;56.70;;;;;;5029665;28;20455;-51
2023/08/03 10:41:37;;;;;;;2.63;0.53;;;21.90;68.70;;;;;;5003260;28;20570;-51
2023/08/03 10:44:24;;;;;;;1.57;0.80;;;23.00;88.40;;;;;;5008171;28;20988;-51
2023/08/03 10:46:53;;;;;;;1.53;0.50;;;24.00;99.90;;;;;;5015997;28;20498;-51
2023/08/03 10:49:49;;;;;;;3.40;0.50;;;23.70;99.90;;;;;;5016087;28;21066;-53
2023/08/03 10:52:34;;;;;;;2.93;0.70;;;23.00;99.90;;;;;;5024705;28;20570;-52
2023/08/03 10:55:20;;;;;;;0.80;0.50;;;23.00;97.60;;;;;;5013741;28;20534;-51
2023/08/03 10:57:47;;;;;;;1.07;0.70;;;22.70;99.90;;;;;;5015642;28;20458;-51
2023/08/03 11:00:15;;;;;;;0.87;0.57;;;22.80;99.90;;;;;;5018038;28;20907;-51
2023/08/03 11:02:43;;;;;;;0.70;0.50;;;22.70;95.60;;;;;;5023314;28;20482;-52
2023/08/03 11:05:11;;;;;;;0.70;0.30;;;22.70;96.30;;;;;;5020184;28;20494;-52
2023/08/03 11:07:39;;;;;;;2.80;0.73;;;22.40;92.70;;;;;;5016860;28;20592;-50
2023/08/03 11:10:09;;;;;;;14.93;1.53;;;21.90;71.90;;;;;;5022411;28;20578;-53
2023/08/03 11:12:35;;;;;;;1.30;0.70;;;21.20;99.90;;;;;;5013400;28;20498;-51
2023/08/03 11:15:02;;;;;;;5.67;0.70;;;20.40;99.90;;;;;;5010039;28;21005;-50
2023/08/03 11:17:33;;;;;;;2.63;0.80;;;20.00;99.90;;;;;;5013251;28;20482;-51
2023/08/03 11:20:00;;;;;;;5.13;1.03;;;19.80;99.90;;;;;;5008900;28;20511;-53
2023/08/03 11:22:28;;;;;;;1.53;0.70;;;19.80;99.90;;;;;;5014253;28;20501;-52
2023/08/03 11:24:56;;;;;;;1.43;0.50;;;19.90;99.90;;;;;;5014419;28;20494;-52
2023/08/03 11:27:23;;;;;;;1.60;0.77;;;20.20;98.40;;;;;;5022848;28;21024;-52
2023/08/03 11:29:52;;;;;;;3.73;0.80;;;20.60;99.90;;;;;;5010118;28;21064;-51
2023/08/03 11:32:22;;;;;;;3.90;0.60;;;21.00;99.90;;;;;;5015784;28;21017;-51
2023/08/03 11:34:50;;;;;;;0.90;0.50;;;21.20;99.90;;;;;;5015552;28;20874;-51
2023/08/03 11:37:16;;;;;;;2.20;0.70;;;21.40;99.90;;;;;;5015563;28;20467;-50
2023/08/03 11:39:43;;;;;;;1.23;0.63;;;21.60;99.90;;;;;;5023229;28;20535;-49
2023/08/03 11:42:10;;;;;;;2.53;0.80;;;21.80;99.90;;;;;;5007503;28;20582;-50
2023/08/03 11:44:39;;;;;;;4.40;0.63;;;22.00;30.50;;;;;;5020201;28;20459;-50
2023/08/03 11:47:07;;;;;;;1.87;0.60;;;22.20;52.30;;;;;;5030164;28;20443;-50
2023/08/03 11:49:34;;;;;;;1.60;0.80;;;22.20;53.90;;;;;;5008251;28;21016;-50
2023/08/03 11:52:02;;;;;;;3.93;0.90;;;21.90;49.80;;;;;;5016029;28;20544;-51
2023/08/03 11:54:32;;;;;;;2.33;0.80;;;22.20;55.10;;;;;;5028710;28;20526;-50
2023/08/03 11:59:43;;;;;;;1.90;0.73;;;23.00;60.70;;;;;;5018806;28;20450;-51
2023/08/03 12:02:10;;;;;;;3.63;0.60;;;23.80;89.30;;;;;;5027814;28;21056;-50
2023/08/03 12:04:36;;;;;;;3.70;0.70;;;24.00;84.30;;;;;;5025611;28;20483;-50
2023/08/03 12:07:06;;;;;;;4.30;0.80;;;23.70;99.90;;;;;;5029081;28;20541;-50
2023/08/03 12:09:39;;;;;;;3.70;0.70;;;23.10;91.10;;;;;;4993248;28;20512;-51
2023/08/03 12:12:08;;;;;;;1.53;0.50;;;22.70;92.80;;;;;;5012562;28;20479;-50
2023/08/03 12:14:35;;;;;;;5.50;0.50;;;22.40;86.60;;;;;;5009770;28;20462;-50
2023/08/03 12:17:01;;;;;;;2.50;0.60;;;22.10;80.60;;;;;;5024141;28;20471;-51
2023/08/03 12:19:32;;;;;;;1.97;1.10;;;22.30;80.10;;;;;;5020516;28;20554;-50
2023/08/03 12:21:59;;;;;;;4.37;0.87;;;22.40;94.10;;;;;;5015710;28;20499;-50
2023/08/03 12:24:27;;;;;;;5.10;1.00;;;22.30;99.90;;;;;;5010030;28;20547;-50
2023/08/03 12:26:54;;;;;;;0.80;0.60;;;22.30;99.00;;;;;;5032537;28;20438;-50
2023/08/03 12:29:20;;;;;;;1.43;0.50;;;22.30;87.70;;;;;;5021694;28;21236;-51
2023/08/03 12:31:47;;;;;;;3.10;1.13;;;22.30;99.90;;;;;;5024226;28;20538;-51
2023/08/03 12:34:13;;;;;;;4.50;0.80;;;22.20;99.90;;;;;;5029736;28;20485;-50
2023/08/03 12:36:40;;;;;;;4.90;0.70;;;22.10;99.90;;;;;;5024193;28;20521;-50
2023/08/03 12:39:06;;;;;;;7.47;0.60;;;21.90;99.90;;;;;;5031683;28;20442;-50
2023/08/03 12:41:34;;;;;;;1.57;0.70;;;21.90;99.90;;;;;;5014536;28;20919;-50
2023/08/03 12:44:01;;;;;;;3.73;0.57;;;21.80;99.90;;;;;;5014789;28;20520;-51
2023/08/03 12:46:27;;;;;;;3.10;0.50;;;21.90;99.90;;;;;;5023146;28;20470;-51
2023/08/03 12:48:54;;;;;;;5.27;0.80;;;22.10;99.90;;;;;;5026415;28;20514;-50
2023/08/03 12:51:20;;;;;;;0.90;0.50;;;22.20;99.90;;;;;;5022043;28;20572;-51